sensor_id;sensor_type;location;lat;lon;timestamp;P1;durP1;ratioP1;P2;durP2;ratioP2
22646;SDS011;11490;42.726;23.268;2023-12-20T00:01:34;52.10;;;34.58;;
22646;SDS011;11490;42.726;23.268;2023-12-20T00:04:00;57.42;;;37.95;;
22646;SDS011;11490;42.726;23.268;2023-12-20T00:06:26;41.42;;;33.45;;
22646;SDS011;11490;42.726;23.268;2023-12-20T00:08:51;51.63;;;32.40;;
22646;SDS011;11490;42.726;23.268;2023-12-20T00:11:17;58.63;;;34.53;;
22646;SDS011;11490;42.726;23.268;2023-12-20T00:13:42;67.13;;;32.08;;
22646;SDS011;11490;42.726;23.268;2023-12-20T00:16:09;50.08;;;34.95;;
22646;SDS011;11490;42.726;23.268;2023-12-20T00:18:34;56.75;;;40.33;;
22646;SDS011;11490;42.726;23.268;2023-12-20T00:21:00;51.47;;;31.55;;
22646;SDS011;11490;42.726;23.268;2023-12-20T00:23:25;43.92;;;31.27;;
22646;SDS011;11490;42.726;23.268;2023-12-20T00:25:51;45.33;;;31.23;;
22646;SDS011;11490;42.726;23.268;2023-12-20T00:28:16;55.40;;;32.70;;
22646;SDS011;11490;42.726;23.268;2023-12-20T00:30:41;41.47;;;28.30;;
22646;SDS011;11490;42.726;23.268;2023-12-20T00:33:07;46.60;;;27.52;;
22646;SDS011;11490;42.726;23.268;2023-12-20T00:35:32;51.88;;;30.33;;
22646;SDS011;11490;42.726;23.268;2023-12-20T00:37:58;43.78;;;29.13;;
22646;SDS011;11490;42.726;23.268;2023-12-20T00:40:24;43.65;;;28.48;;
22646;SDS011;11490;42.726;23.268;2023-12-20T00:42:49;42.17;;;26.33;;
22646;SDS011;11490;42.726;23.268;2023-12-20T00:45:15;40.75;;;27.20;;
22646;SDS011;11490;42.726;23.268;2023-12-20T00:47:40;49.70;;;25.63;;
22646;SDS011;11490;42.726;23.268;2023-12-20T00:50:06;37.33;;;25.50;;
22646;SDS011;11490;42.726;23.268;2023-12-20T00:52:32;35.70;;;24.30;;
22646;SDS011;11490;42.726;23.268;2023-12-20T00:54:57;40.38;;;27.20;;
22646;SDS011;11490;42.726;23.268;2023-12-20T00:57:22;36.63;;;27.30;;
22646;SDS011;11490;42.726;23.268;2023-12-20T00:59:48;41.85;;;29.77;;
22646;SDS011;11490;42.726;23.268;2023-12-20T01:02:14;41.45;;;24.17;;
22646;SDS011;11490;42.726;23.268;2023-12-20T01:04:39;34.75;;;22.40;;
22646;SDS011;11490;42.726;23.268;2023-12-20T01:07:04;41.08;;;25.40;;
22646;SDS011;11490;42.726;23.268;2023-12-20T01:09:30;38.28;;;22.90;;
22646;SDS011;11490;42.726;23.268;2023-12-20T01:11:55;38.90;;;25.67;;
22646;SDS011;11490;42.726;23.268;2023-12-20T01:14:21;32.47;;;23.92;;
22646;SDS011;11490;42.726;23.268;2023-12-20T01:16:46;33.70;;;24.48;;
22646;SDS011;11490;42.726;23.268;2023-12-20T01:19:12;34.95;;;22.10;;
22646;SDS011;11490;42.726;23.268;2023-12-20T01:21:39;39.80;;;25.35;;
22646;SDS011;11490;42.726;23.268;2023-12-20T01:24:04;50.08;;;24.35;;
22646;SDS011;11490;42.726;23.268;2023-12-20T01:26:30;38.88;;;23.92;;
22646;SDS011;11490;42.726;23.268;2023-12-20T01:28:55;38.63;;;24.83;;
22646;SDS011;11490;42.726;23.268;2023-12-20T01:31:20;37.57;;;25.73;;
22646;SDS011;11490;42.726;23.268;2023-12-20T01:33:46;31.50;;;24.60;;
22646;SDS011;11490;42.726;23.268;2023-12-20T01:36:11;36.55;;;20.50;;
22646;SDS011;11490;42.726;23.268;2023-12-20T01:38:37;43.17;;;21.63;;
22646;SDS011;11490;42.726;23.268;2023-12-20T01:41:03;25.25;;;19.77;;
22646;SDS011;11490;42.726;23.268;2023-12-20T01:43:29;26.35;;;22.77;;
22646;SDS011;11490;42.726;23.268;2023-12-20T01:45:55;32.25;;;21.65;;
22646;SDS011;11490;42.726;23.268;2023-12-20T01:48:22;36.25;;;21.55;;
22646;SDS011;11490;42.726;23.268;2023-12-20T01:50:48;29.75;;;19.58;;
22646;SDS011;11490;42.726;23.268;2023-12-20T01:53:14;35.85;;;21.90;;
22646;SDS011;11490;42.726;23.268;2023-12-20T01:55:41;40.38;;;24.42;;
22646;SDS011;11490;42.726;23.268;2023-12-20T01:58:07;48.80;;;24.08;;
22646;SDS011;11490;42.726;23.268;2023-12-20T02:00:35;42.30;;;26.77;;
22646;SDS011;11490;42.726;23.268;2023-12-20T02:03:02;44.20;;;25.73;;
22646;SDS011;11490;42.726;23.268;2023-12-20T02:05:27;56.85;;;28.23;;
22646;SDS011;11490;42.726;23.268;2023-12-20T02:07:54;52.60;;;28.25;;
22646;SDS011;11490;42.726;23.268;2023-12-20T02:10:20;27.92;;;18.88;;
22646;SDS011;11490;42.726;23.268;2023-12-20T02:12:46;34.00;;;18.98;;
22646;SDS011;11490;42.726;23.268;2023-12-20T02:15:11;24.73;;;17.25;;
22646;SDS011;11490;42.726;23.268;2023-12-20T02:17:37;20.88;;;15.35;;
22646;SDS011;11490;42.726;23.268;2023-12-20T02:20:03;24.42;;;15.57;;
22646;SDS011;11490;42.726;23.268;2023-12-20T02:22:30;31.33;;;15.85;;
22646;SDS011;11490;42.726;23.268;2023-12-20T02:24:56;21.02;;;13.70;;
22646;SDS011;11490;42.726;23.268;2023-12-20T02:27:22;36.55;;;17.58;;
22646;SDS011;11490;42.726;23.268;2023-12-20T02:29:48;16.75;;;15.10;;
22646;SDS011;11490;42.726;23.268;2023-12-20T02:32:14;26.23;;;15.00;;
22646;SDS011;11490;42.726;23.268;2023-12-20T02:34:40;39.83;;;21.42;;
22646;SDS011;11490;42.726;23.268;2023-12-20T02:37:06;42.38;;;18.83;;
22646;SDS011;11490;42.726;23.268;2023-12-20T02:39:31;22.38;;;15.18;;
22646;SDS011;11490;42.726;23.268;2023-12-20T02:41:58;19.48;;;15.55;;
22646;SDS011;11490;42.726;23.268;2023-12-20T02:44:23;22.70;;;16.05;;
22646;SDS011;11490;42.726;23.268;2023-12-20T02:46:49;19.20;;;15.20;;
22646;SDS011;11490;42.726;23.268;2023-12-20T02:49:15;21.48;;;16.02;;
22646;SDS011;11490;42.726;23.268;2023-12-20T02:51:40;47.35;;;26.85;;
22646;SDS011;11490;42.726;23.268;2023-12-20T02:54:05;35.90;;;22.55;;
22646;SDS011;11490;42.726;23.268;2023-12-20T02:56:32;23.33;;;15.93;;
22646;SDS011;11490;42.726;23.268;2023-12-20T02:58:58;27.85;;;15.27;;
22646;SDS011;11490;42.726;23.268;2023-12-20T03:01:23;23.15;;;14.52;;
22646;SDS011;11490;42.726;23.268;2023-12-20T03:03:49;28.42;;;16.48;;
22646;SDS011;11490;42.726;23.268;2023-12-20T03:06:18;25.90;;;18.38;;
22646;SDS011;11490;42.726;23.268;2023-12-20T03:08:44;20.25;;;14.82;;
22646;SDS011;11490;42.726;23.268;2023-12-20T03:11:10;13.38;;;11.75;;
22646;SDS011;11490;42.726;23.268;2023-12-20T03:13:35;15.95;;;13.15;;
22646;SDS011;11490;42.726;23.268;2023-12-20T03:16:01;22.08;;;13.57;;
22646;SDS011;11490;42.726;23.268;2023-12-20T03:18:26;18.33;;;12.40;;
22646;SDS011;11490;42.726;23.268;2023-12-20T03:20:53;14.20;;;12.68;;
22646;SDS011;11490;42.726;23.268;2023-12-20T03:23:18;15.88;;;12.73;;
22646;SDS011;11490;42.726;23.268;2023-12-20T03:25:44;24.92;;;14.40;;
22646;SDS011;11490;42.726;23.268;2023-12-20T03:28:09;16.55;;;12.32;;
22646;SDS011;11490;42.726;23.268;2023-12-20T03:30:35;15.35;;;11.90;;
22646;SDS011;11490;42.726;23.268;2023-12-20T03:33:00;20.75;;;14.68;;
22646;SDS011;11490;42.726;23.268;2023-12-20T03:35:25;28.92;;;15.30;;
22646;SDS011;11490;42.726;23.268;2023-12-20T03:37:51;12.85;;;11.52;;
22646;SDS011;11490;42.726;23.268;2023-12-20T03:40:16;15.23;;;9.88;;
22646;SDS011;11490;42.726;23.268;2023-12-20T03:42:42;13.43;;;10.55;;
22646;SDS011;11490;42.726;23.268;2023-12-20T03:45:07;11.63;;;10.35;;
22646;SDS011;11490;42.726;23.268;2023-12-20T03:47:33;12.73;;;10.45;;
22646;SDS011;11490;42.726;23.268;2023-12-20T03:49:59;15.85;;;10.10;;
22646;SDS011;11490;42.726;23.268;2023-12-20T03:52:24;14.63;;;12.45;;
22646;SDS011;11490;42.726;23.268;2023-12-20T03:54:49;15.93;;;11.32;;
22646;SDS011;11490;42.726;23.268;2023-12-20T03:57:15;17.35;;;13.48;;
22646;SDS011;11490;42.726;23.268;2023-12-20T03:59:40;16.45;;;11.30;;
22646;SDS011;11490;42.726;23.268;2023-12-20T04:02:05;17.83;;;14.18;;
22646;SDS011;11490;42.726;23.268;2023-12-20T04:04:31;15.00;;;12.25;;
22646;SDS011;11490;42.726;23.268;2023-12-20T04:06:56;15.98;;;14.00;;
22646;SDS011;11490;42.726;23.268;2023-12-20T04:09:22;17.35;;;10.02;;
22646;SDS011;11490;42.726;23.268;2023-12-20T04:11:47;17.42;;;9.75;;
22646;SDS011;11490;42.726;23.268;2023-12-20T04:14:12;17.35;;;12.80;;
22646;SDS011;11490;42.726;23.268;2023-12-20T04:16:38;18.50;;;12.18;;
22646;SDS011;11490;42.726;23.268;2023-12-20T04:19:04;14.90;;;11.18;;
22646;SDS011;11490;42.726;23.268;2023-12-20T04:21:30;20.85;;;13.18;;
22646;SDS011;11490;42.726;23.268;2023-12-20T04:23:55;13.40;;;9.40;;
22646;SDS011;11490;42.726;23.268;2023-12-20T04:26:20;16.17;;;12.70;;
22646;SDS011;11490;42.726;23.268;2023-12-20T04:28:46;11.88;;;9.75;;
22646;SDS011;11490;42.726;23.268;2023-12-20T04:31:11;11.48;;;10.38;;
22646;SDS011;11490;42.726;23.268;2023-12-20T04:33:37;14.25;;;11.60;;
22646;SDS011;11490;42.726;23.268;2023-12-20T04:36:02;14.73;;;10.65;;
22646;SDS011;11490;42.726;23.268;2023-12-20T04:38:28;16.95;;;10.75;;
22646;SDS011;11490;42.726;23.268;2023-12-20T04:40:53;12.98;;;9.90;;
22646;SDS011;11490;42.726;23.268;2023-12-20T04:43:19;12.77;;;11.37;;
22646;SDS011;11490;42.726;23.268;2023-12-20T04:45:44;15.35;;;9.95;;
22646;SDS011;11490;42.726;23.268;2023-12-20T04:48:09;17.85;;;13.10;;
22646;SDS011;11490;42.726;23.268;2023-12-20T04:50:35;19.25;;;12.93;;
22646;SDS011;11490;42.726;23.268;2023-12-20T04:53:00;17.75;;;11.15;;
22646;SDS011;11490;42.726;23.268;2023-12-20T04:55:26;17.40;;;11.07;;
22646;SDS011;11490;42.726;23.268;2023-12-20T04:57:51;11.95;;;10.52;;
22646;SDS011;11490;42.726;23.268;2023-12-20T05:00:17;10.48;;;9.48;;
22646;SDS011;11490;42.726;23.268;2023-12-20T05:02:42;12.95;;;10.00;;
22646;SDS011;11490;42.726;23.268;2023-12-20T05:05:08;15.63;;;11.48;;
22646;SDS011;11490;42.726;23.268;2023-12-20T05:07:33;12.30;;;11.05;;
22646;SDS011;11490;42.726;23.268;2023-12-20T05:09:59;12.23;;;10.98;;
22646;SDS011;11490;42.726;23.268;2023-12-20T05:12:24;16.83;;;11.57;;
22646;SDS011;11490;42.726;23.268;2023-12-20T05:14:51;11.95;;;10.82;;
22646;SDS011;11490;42.726;23.268;2023-12-20T05:17:17;15.13;;;12.38;;
22646;SDS011;11490;42.726;23.268;2023-12-20T05:19:42;17.98;;;13.02;;
22646;SDS011;11490;42.726;23.268;2023-12-20T05:22:08;24.25;;;12.13;;
22646;SDS011;11490;42.726;23.268;2023-12-20T05:24:33;21.43;;;14.60;;
22646;SDS011;11490;42.726;23.268;2023-12-20T05:26:59;16.48;;;12.88;;
22646;SDS011;11490;42.726;23.268;2023-12-20T05:29:25;19.57;;;13.80;;
22646;SDS011;11490;42.726;23.268;2023-12-20T05:31:50;25.53;;;15.70;;
22646;SDS011;11490;42.726;23.268;2023-12-20T05:34:15;20.13;;;13.48;;
22646;SDS011;11490;42.726;23.268;2023-12-20T05:36:41;17.95;;;12.30;;
22646;SDS011;11490;42.726;23.268;2023-12-20T05:39:06;22.00;;;12.63;;
22646;SDS011;11490;42.726;23.268;2023-12-20T05:41:33;15.77;;;12.52;;
22646;SDS011;11490;42.726;23.268;2023-12-20T05:43:58;18.33;;;12.73;;
22646;SDS011;11490;42.726;23.268;2023-12-20T06:20:11;16.63;;;10.53;;
22646;SDS011;11490;42.726;23.268;2023-12-20T06:22:38;16.17;;;10.55;;
22646;SDS011;11490;42.726;23.268;2023-12-20T06:25:04;12.90;;;11.50;;
22646;SDS011;11490;42.726;23.268;2023-12-20T06:27:29;21.67;;;11.98;;
22646;SDS011;11490;42.726;23.268;2023-12-20T06:29:57;17.52;;;12.20;;
22646;SDS011;11490;42.726;23.268;2023-12-20T06:32:23;16.52;;;12.85;;
22646;SDS011;11490;42.726;23.268;2023-12-20T06:34:49;15.68;;;9.68;;
22646;SDS011;11490;42.726;23.268;2023-12-20T06:37:16;19.15;;;12.98;;
22646;SDS011;11490;42.726;23.268;2023-12-20T06:39:44;14.15;;;12.55;;
22646;SDS011;11490;42.726;23.268;2023-12-20T06:42:10;15.23;;;11.50;;
22646;SDS011;11490;42.726;23.268;2023-12-20T06:44:35;34.20;;;13.63;;
22646;SDS011;11490;42.726;23.268;2023-12-20T06:47:01;15.30;;;12.35;;
22646;SDS011;11490;42.726;23.268;2023-12-20T06:49:27;20.35;;;13.23;;
22646;SDS011;11490;42.726;23.268;2023-12-20T06:51:52;23.65;;;13.88;;
22646;SDS011;11490;42.726;23.268;2023-12-20T06:54:18;32.15;;;14.18;;
22646;SDS011;11490;42.726;23.268;2023-12-20T07:20:34;26.83;;;16.40;;
22646;SDS011;11490;42.726;23.268;2023-12-20T07:47:13;15.32;;;12.40;;
22646;SDS011;11490;42.726;23.268;2023-12-20T07:49:42;13.82;;;10.60;;
22646;SDS011;11490;42.726;23.268;2023-12-20T07:58:13;16.50;;;12.00;;
22646;SDS011;11490;42.726;23.268;2023-12-20T08:01:10;23.00;;;12.48;;
22646;SDS011;11490;42.726;23.268;2023-12-20T08:03:37;22.55;;;12.27;;
22646;SDS011;11490;42.726;23.268;2023-12-20T08:06:05;19.00;;;12.05;;
22646;SDS011;11490;42.726;23.268;2023-12-20T08:08:33;22.20;;;14.73;;
22646;SDS011;11490;42.726;23.268;2023-12-20T08:10:59;21.95;;;15.43;;
22646;SDS011;11490;42.726;23.268;2023-12-20T08:13:25;22.77;;;15.38;;
22646;SDS011;11490;42.726;23.268;2023-12-20T08:15:51;18.80;;;12.90;;
22646;SDS011;11490;42.726;23.268;2023-12-20T08:18:27;21.33;;;12.85;;
22646;SDS011;11490;42.726;23.268;2023-12-20T08:21:16;17.60;;;11.88;;
22646;SDS011;11490;42.726;23.268;2023-12-20T08:23:44;21.60;;;13.45;;
22646;SDS011;11490;42.726;23.268;2023-12-20T08:26:10;26.60;;;17.67;;
22646;SDS011;11490;42.726;23.268;2023-12-20T08:28:36;25.67;;;15.52;;
22646;SDS011;11490;42.726;23.268;2023-12-20T08:31:13;16.67;;;13.30;;
22646;SDS011;11490;42.726;23.268;2023-12-20T08:33:39;17.17;;;13.20;;
22646;SDS011;11490;42.726;23.268;2023-12-20T08:36:04;24.25;;;16.13;;
22646;SDS011;11490;42.726;23.268;2023-12-20T08:38:30;19.60;;;14.73;;
22646;SDS011;11490;42.726;23.268;2023-12-20T08:40:56;25.95;;;15.07;;
22646;SDS011;11490;42.726;23.268;2023-12-20T08:43:21;21.15;;;12.35;;
22646;SDS011;11490;42.726;23.268;2023-12-20T08:45:47;40.65;;;18.92;;
22646;SDS011;11490;42.726;23.268;2023-12-20T08:48:12;33.58;;;19.13;;
22646;SDS011;11490;42.726;23.268;2023-12-20T08:50:37;28.83;;;17.15;;
22646;SDS011;11490;42.726;23.268;2023-12-20T08:53:03;21.02;;;15.52;;
22646;SDS011;11490;42.726;23.268;2023-12-20T08:55:29;27.00;;;16.08;;
22646;SDS011;11490;42.726;23.268;2023-12-20T08:57:56;35.83;;;15.02;;
22646;SDS011;11490;42.726;23.268;2023-12-20T09:00:21;29.98;;;18.48;;
22646;SDS011;11490;42.726;23.268;2023-12-20T09:02:49;31.42;;;18.20;;
22646;SDS011;11490;42.726;23.268;2023-12-20T09:05:15;30.45;;;19.83;;
22646;SDS011;11490;42.726;23.268;2023-12-20T09:07:40;31.40;;;19.55;;
22646;SDS011;11490;42.726;23.268;2023-12-20T09:10:06;33.20;;;22.23;;
22646;SDS011;11490;42.726;23.268;2023-12-20T09:12:31;36.50;;;21.90;;
22646;SDS011;11490;42.726;23.268;2023-12-20T09:14:57;35.25;;;20.23;;
22646;SDS011;11490;42.726;23.268;2023-12-20T09:17:22;38.75;;;20.55;;
22646;SDS011;11490;42.726;23.268;2023-12-20T09:19:48;37.22;;;22.08;;
22646;SDS011;11490;42.726;23.268;2023-12-20T09:22:13;45.05;;;22.55;;
22646;SDS011;11490;42.726;23.268;2023-12-20T09:24:39;41.47;;;23.73;;
22646;SDS011;11490;42.726;23.268;2023-12-20T09:27:07;43.63;;;26.63;;
22646;SDS011;11490;42.726;23.268;2023-12-20T09:29:33;29.00;;;20.70;;
22646;SDS011;11490;42.726;23.268;2023-12-20T09:31:58;47.85;;;24.98;;
22646;SDS011;11490;42.726;23.268;2023-12-20T09:34:24;40.13;;;25.70;;
22646;SDS011;11490;42.726;23.268;2023-12-20T09:36:50;41.10;;;22.65;;
22646;SDS011;11490;42.726;23.268;2023-12-20T09:39:17;48.38;;;25.38;;
22646;SDS011;11490;42.726;23.268;2023-12-20T09:44:28;52.40;;;28.13;;
22646;SDS011;11490;42.726;23.268;2023-12-20T09:46:54;59.95;;;28.88;;
22646;SDS011;11490;42.726;23.268;2023-12-20T09:49:20;51.50;;;29.27;;
22646;SDS011;11490;42.726;23.268;2023-12-20T09:51:47;49.28;;;26.77;;
22646;SDS011;11490;42.726;23.268;2023-12-20T09:54:19;41.42;;;28.02;;
22646;SDS011;11490;42.726;23.268;2023-12-20T09:56:47;49.15;;;24.65;;
22646;SDS011;11490;42.726;23.268;2023-12-20T09:59:19;53.70;;;29.27;;
22646;SDS011;11490;42.726;23.268;2023-12-20T10:01:45;50.75;;;26.70;;
22646;SDS011;11490;42.726;23.268;2023-12-20T10:04:16;48.90;;;30.67;;
22646;SDS011;11490;42.726;23.268;2023-12-20T10:06:42;50.10;;;29.65;;
22646;SDS011;11490;42.726;23.268;2023-12-20T10:09:08;69.63;;;35.03;;
22646;SDS011;11490;42.726;23.268;2023-12-20T10:11:38;45.65;;;27.70;;
22646;SDS011;11490;42.726;23.268;2023-12-20T10:14:04;54.58;;;26.45;;
22646;SDS011;11490;42.726;23.268;2023-12-20T10:16:40;58.38;;;25.85;;
22646;SDS011;11490;42.726;23.268;2023-12-20T10:19:08;59.22;;;32.75;;
22646;SDS011;11490;42.726;23.268;2023-12-20T10:21:39;60.20;;;32.20;;
22646;SDS011;11490;42.726;23.268;2023-12-20T10:24:06;54.03;;;29.67;;
22646;SDS011;11490;42.726;23.268;2023-12-20T10:26:32;63.80;;;35.38;;
22646;SDS011;11490;42.726;23.268;2023-12-20T10:28:59;75.78;;;34.35;;
22646;SDS011;11490;42.726;23.268;2023-12-20T10:31:30;57.78;;;34.50;;
22646;SDS011;11490;42.726;23.268;2023-12-20T10:34:00;65.10;;;35.45;;
22646;SDS011;11490;42.726;23.268;2023-12-20T10:36:27;62.95;;;33.78;;
22646;SDS011;11490;42.726;23.268;2023-12-20T10:38:56;62.15;;;32.15;;
22646;SDS011;11490;42.726;23.268;2023-12-20T10:41:30;71.32;;;32.05;;
22646;SDS011;11490;42.726;23.268;2023-12-20T10:44:00;64.45;;;31.33;;
22646;SDS011;11490;42.726;23.268;2023-12-20T10:46:28;63.05;;;28.10;;
22646;SDS011;11490;42.726;23.268;2023-12-20T10:48:55;65.45;;;32.80;;
22646;SDS011;11490;42.726;23.268;2023-12-20T10:51:21;49.75;;;28.55;;
22646;SDS011;11490;42.726;23.268;2023-12-20T10:53:51;54.70;;;29.38;;
22646;SDS011;11490;42.726;23.268;2023-12-20T10:56:18;67.05;;;30.42;;
22646;SDS011;11490;42.726;23.268;2023-12-20T10:58:48;64.95;;;34.05;;
22646;SDS011;11490;42.726;23.268;2023-12-20T11:01:16;56.78;;;31.40;;
22646;SDS011;11490;42.726;23.268;2023-12-20T11:03:52;58.75;;;29.90;;
22646;SDS011;11490;42.726;23.268;2023-12-20T11:06:26;60.63;;;28.38;;
22646;SDS011;11490;42.726;23.268;2023-12-20T11:09:01;64.15;;;29.27;;
22646;SDS011;11490;42.726;23.268;2023-12-20T11:11:38;62.20;;;32.20;;
22646;SDS011;11490;42.726;23.268;2023-12-20T11:14:25;70.72;;;32.45;;
22646;SDS011;11490;42.726;23.268;2023-12-20T11:17:06;57.60;;;34.28;;
22646;SDS011;11490;42.726;23.268;2023-12-20T11:19:36;72.22;;;34.42;;
22646;SDS011;11490;42.726;23.268;2023-12-20T11:22:12;64.07;;;32.08;;
22646;SDS011;11490;42.726;23.268;2023-12-20T11:24:43;55.15;;;32.15;;
22646;SDS011;11490;42.726;23.268;2023-12-20T11:27:11;65.40;;;32.85;;
22646;SDS011;11490;42.726;23.268;2023-12-20T11:29:38;63.42;;;33.65;;
22646;SDS011;11490;42.726;23.268;2023-12-20T11:34:50;50.40;;;28.10;;
22646;SDS011;11490;42.726;23.268;2023-12-20T11:37:32;56.08;;;26.85;;
22646;SDS011;11490;42.726;23.268;2023-12-20T11:40:02;47.10;;;24.48;;
22646;SDS011;11490;42.726;23.268;2023-12-20T11:42:33;53.70;;;25.73;;
22646;SDS011;11490;42.726;23.268;2023-12-20T11:45:04;53.13;;;27.98;;
22646;SDS011;11490;42.726;23.268;2023-12-20T11:47:31;65.72;;;30.25;;
22646;SDS011;11490;42.726;23.268;2023-12-20T11:49:59;55.55;;;27.20;;
22646;SDS011;11490;42.726;23.268;2023-12-20T11:52:34;63.03;;;28.83;;
22646;SDS011;11490;42.726;23.268;2023-12-20T11:55:08;49.20;;;25.13;;
22646;SDS011;11490;42.726;23.268;2023-12-20T11:58:18;51.05;;;27.55;;
22646;SDS011;11490;42.726;23.268;2023-12-20T12:11:27;47.97;;;27.52;;
22646;SDS011;11490;42.726;23.268;2023-12-20T12:15:15;49.60;;;27.58;;
22646;SDS011;11490;42.726;23.268;2023-12-20T12:17:57;59.97;;;32.65;;
22646;SDS011;11490;42.726;23.268;2023-12-20T12:20:48;65.57;;;34.28;;
22646;SDS011;11490;42.726;23.268;2023-12-20T12:23:48;60.45;;;31.35;;
22646;SDS011;11490;42.726;23.268;2023-12-20T12:26:16;81.18;;;36.40;;
22646;SDS011;11490;42.726;23.268;2023-12-20T12:28:45;75.53;;;41.33;;
22646;SDS011;11490;42.726;23.268;2023-12-20T12:31:35;66.47;;;35.33;;
22646;SDS011;11490;42.726;23.268;2023-12-20T12:33:59;74.03;;;37.40;;
22646;SDS011;11490;42.726;23.268;2023-12-20T12:36:28;64.47;;;35.20;;
22646;SDS011;11490;42.726;23.268;2023-12-20T12:38:56;73.60;;;39.75;;
22646;SDS011;11490;42.726;23.268;2023-12-20T12:41:23;75.38;;;41.30;;
22646;SDS011;11490;42.726;23.268;2023-12-20T12:43:50;76.78;;;41.40;;
22646;SDS011;11490;42.726;23.268;2023-12-20T12:46:16;77.45;;;45.40;;
22646;SDS011;11490;42.726;23.268;2023-12-20T12:48:44;82.60;;;40.13;;
22646;SDS011;11490;42.726;23.268;2023-12-20T12:51:10;76.97;;;39.65;;
22646;SDS011;11490;42.726;23.268;2023-12-20T12:53:45;69.60;;;38.05;;
22646;SDS011;11490;42.726;23.268;2023-12-20T12:56:17;74.93;;;38.75;;
22646;SDS011;11490;42.726;23.268;2023-12-20T12:58:50;78.78;;;41.50;;
22646;SDS011;11490;42.726;23.268;2023-12-20T13:01:15;81.28;;;43.55;;
22646;SDS011;11490;42.726;23.268;2023-12-20T13:03:43;74.07;;;39.28;;
22646;SDS011;11490;42.726;23.268;2023-12-20T13:06:09;72.05;;;40.50;;
22646;SDS011;11490;42.726;23.268;2023-12-20T13:08:34;81.57;;;40.85;;
22646;SDS011;11490;42.726;23.268;2023-12-20T13:11:00;65.80;;;33.78;;
22646;SDS011;11490;42.726;23.268;2023-12-20T13:13:29;67.00;;;33.03;;
22646;SDS011;11490;42.726;23.268;2023-12-20T13:15:55;72.65;;;36.13;;
22646;SDS011;11490;42.726;23.268;2023-12-20T13:18:20;55.45;;;29.80;;
22646;SDS011;11490;42.726;23.268;2023-12-20T13:20:46;62.47;;;31.15;;
22646;SDS011;11490;42.726;23.268;2023-12-20T13:23:12;59.50;;;33.67;;
22646;SDS011;11490;42.726;23.268;2023-12-20T13:25:40;51.35;;;30.25;;
22646;SDS011;11490;42.726;23.268;2023-12-20T13:28:06;61.05;;;30.55;;
22646;SDS011;11490;42.726;23.268;2023-12-20T13:30:33;56.45;;;33.97;;
22646;SDS011;11490;42.726;23.268;2023-12-20T13:32:59;54.88;;;29.10;;
22646;SDS011;11490;42.726;23.268;2023-12-20T13:35:24;67.88;;;31.42;;
22646;SDS011;11490;42.726;23.268;2023-12-20T13:37:50;70.85;;;32.85;;
22646;SDS011;11490;42.726;23.268;2023-12-20T13:40:15;63.85;;;31.98;;
22646;SDS011;11490;42.726;23.268;2023-12-20T13:42:41;55.15;;;30.75;;
22646;SDS011;11490;42.726;23.268;2023-12-20T13:45:07;42.17;;;28.60;;
22646;SDS011;11490;42.726;23.268;2023-12-20T13:47:33;42.72;;;28.38;;
22646;SDS011;11490;42.726;23.268;2023-12-20T13:49:58;45.53;;;27.73;;
22646;SDS011;11490;42.726;23.268;2023-12-20T13:52:24;49.63;;;29.88;;
22646;SDS011;11490;42.726;23.268;2023-12-20T13:54:49;55.80;;;28.92;;
22646;SDS011;11490;42.726;23.268;2023-12-20T13:57:15;46.13;;;26.10;;
22646;SDS011;11490;42.726;23.268;2023-12-20T13:59:40;49.90;;;28.08;;
22646;SDS011;11490;42.726;23.268;2023-12-20T14:02:06;48.53;;;28.00;;
22646;SDS011;11490;42.726;23.268;2023-12-20T14:04:31;50.60;;;28.10;;
22646;SDS011;11490;42.726;23.268;2023-12-20T14:06:57;47.75;;;28.90;;
22646;SDS011;11490;42.726;23.268;2023-12-20T14:09:24;44.65;;;29.17;;
22646;SDS011;11490;42.726;23.268;2023-12-20T14:11:50;52.42;;;29.42;;
22646;SDS011;11490;42.726;23.268;2023-12-20T14:14:15;54.30;;;25.67;;
22646;SDS011;11490;42.726;23.268;2023-12-20T14:16:42;56.85;;;29.10;;
22646;SDS011;11490;42.726;23.268;2023-12-20T14:19:10;59.90;;;28.50;;
22646;SDS011;11490;42.726;23.268;2023-12-20T14:21:36;57.50;;;25.63;;
22646;SDS011;11490;42.726;23.268;2023-12-20T14:24:04;54.33;;;30.77;;
22646;SDS011;11490;42.726;23.268;2023-12-20T14:26:30;47.40;;;27.05;;
22646;SDS011;11490;42.726;23.268;2023-12-20T14:28:59;56.92;;;29.88;;
22646;SDS011;11490;42.726;23.268;2023-12-20T14:31:25;66.22;;;31.73;;
22646;SDS011;11490;42.726;23.268;2023-12-20T14:33:55;67.70;;;30.80;;
22646;SDS011;11490;42.726;23.268;2023-12-20T14:36:24;66.35;;;31.52;;
22646;SDS011;11490;42.726;23.268;2023-12-20T14:38:59;47.13;;;29.77;;
22646;SDS011;11490;42.726;23.268;2023-12-20T14:41:30;60.50;;;33.50;;
22646;SDS011;11490;42.726;23.268;2023-12-20T14:43:55;56.35;;;29.30;;
22646;SDS011;11490;42.726;23.268;2023-12-20T14:46:32;58.50;;;30.48;;
22646;SDS011;11490;42.726;23.268;2023-12-20T14:49:11;58.55;;;29.90;;
22646;SDS011;11490;42.726;23.268;2023-12-20T14:52:12;49.75;;;30.88;;
22646;SDS011;11490;42.726;23.268;2023-12-20T14:54:38;50.08;;;30.55;;
22646;SDS011;11490;42.726;23.268;2023-12-20T14:57:03;97.47;;;50.15;;
22646;SDS011;11490;42.726;23.268;2023-12-20T14:59:29;62.08;;;36.97;;
22646;SDS011;11490;42.726;23.268;2023-12-20T15:02:00;58.42;;;31.80;;
22646;SDS011;11490;42.726;23.268;2023-12-20T15:04:29;55.78;;;29.60;;
22646;SDS011;11490;42.726;23.268;2023-12-20T15:06:55;56.53;;;31.27;;
22646;SDS011;11490;42.726;23.268;2023-12-20T15:09:21;52.72;;;30.70;;
22646;SDS011;11490;42.726;23.268;2023-12-20T15:11:50;39.15;;;24.75;;
22646;SDS011;11490;42.726;23.268;2023-12-20T15:14:16;53.25;;;28.15;;
22646;SDS011;11490;42.726;23.268;2023-12-20T15:16:44;59.80;;;31.42;;
22646;SDS011;11490;42.726;23.268;2023-12-20T15:19:15;55.50;;;31.40;;
22646;SDS011;11490;42.726;23.268;2023-12-20T15:21:41;47.20;;;32.20;;
22646;SDS011;11490;42.726;23.268;2023-12-20T15:27:33;52.95;;;34.78;;
22646;SDS011;11490;42.726;23.268;2023-12-20T15:30:16;46.38;;;32.88;;
22646;SDS011;11490;42.726;23.268;2023-12-20T15:36:37;71.82;;;43.58;;
22646;SDS011;11490;42.726;23.268;2023-12-20T15:39:13;62.53;;;33.15;;
22646;SDS011;11490;42.726;23.268;2023-12-20T15:41:41;64.28;;;39.22;;
22646;SDS011;11490;42.726;23.268;2023-12-20T15:44:07;52.15;;;29.77;;
22646;SDS011;11490;42.726;23.268;2023-12-20T15:46:35;82.38;;;39.65;;
22646;SDS011;11490;42.726;23.268;2023-12-20T15:49:51;59.70;;;29.38;;
22646;SDS011;11490;42.726;23.268;2023-12-20T15:52:17;64.20;;;33.72;;
22646;SDS011;11490;42.726;23.268;2023-12-20T15:55:20;47.38;;;26.65;;
22646;SDS011;11490;42.726;23.268;2023-12-20T15:57:48;44.90;;;28.02;;
22646;SDS011;11490;42.726;23.268;2023-12-20T16:00:16;67.50;;;33.72;;
22646;SDS011;11490;42.726;23.268;2023-12-20T16:02:45;67.15;;;33.65;;
22646;SDS011;11490;42.726;23.268;2023-12-20T16:06:06;50.28;;;33.22;;